sensor_id;sensor_type;location;lat;lon;timestamp;temperature;humidity
65374;SHT31;52070;53.760;9.678;2023-09-19T00:02:22;16.57;86.91
65374;SHT31;52070;53.760;9.678;2023-09-19T00:04:49;16.57;86.87
65374;SHT31;52070;53.760;9.678;2023-09-19T00:07:18;16.62;86.61
65374;SHT31;52070;53.760;9.678;2023-09-19T00:09:44;16.67;86.35
65374;SHT31;52070;53.760;9.678;2023-09-19T00:12:12;16.72;86.11
65374;SHT31;52070;53.760;9.678;2023-09-19T00:14:39;16.73;85.92
65374;SHT31;52070;53.760;9.678;2023-09-19T00:17:07;16.76;85.86
65374;SHT31;52070;53.760;9.678;2023-09-19T00:19:35;16.79;85.78
65374;SHT31;52070;53.760;9.678;2023-09-19T00:22:03;16.77;85.41
65374;SHT31;52070;53.760;9.678;2023-09-19T00:24:30;16.87;84.80
65374;SHT31;52070;53.760;9.678;2023-09-19T00:26:57;16.81;85.12
65374;SHT31;52070;53.760;9.678;2023-09-19T00:29:25;16.87;84.65
65374;SHT31;52070;53.760;9.678;2023-09-19T00:31:55;16.86;84.60
65374;SHT31;52070;53.760;9.678;2023-09-19T00:34:24;16.86;84.66
65374;SHT31;52070;53.760;9.678;2023-09-19T00:36:51;16.86;84.75
65374;SHT31;52070;53.760;9.678;2023-09-19T00:39:20;16.89;84.80
65374;SHT31;52070;53.760;9.678;2023-09-19T00:41:47;16.93;84.39
65374;SHT31;52070;53.760;9.678;2023-09-19T00:44:14;16.89;84.63
65374;SHT31;52070;53.760;9.678;2023-09-19T00:46:43;16.84;84.99
65374;SHT31;52070;53.760;9.678;2023-09-19T00:49:13;16.87;84.65
65374;SHT31;52070;53.760;9.678;2023-09-19T00:51:42;16.90;84.59
65374;SHT31;52070;53.760;9.678;2023-09-19T00:54:13;16.93;84.38
65374;SHT31;52070;53.760;9.678;2023-09-19T00:56:45;16.91;84.30
65374;SHT31;52070;53.760;9.678;2023-09-19T00:59:12;16.86;84.69
65374;SHT31;52070;53.760;9.678;2023-09-19T01:01:39;16.81;84.62
65374;SHT31;52070;53.760;9.678;2023-09-19T01:04:06;16.79;84.83
65374;SHT31;52070;53.760;9.678;2023-09-19T01:06:33;16.72;85.28
65374;SHT31;52070;53.760;9.678;2023-09-19T01:09:04;16.70;85.23
65374;SHT31;52070;53.760;9.678;2023-09-19T01:11:35;16.70;85.46
65374;SHT31;52070;53.760;9.678;2023-09-19T01:14:14;16.67;85.35
65374;SHT31;52070;53.760;9.678;2023-09-19T01:16:50;16.67;85.34
65374;SHT31;52070;53.760;9.678;2023-09-19T01:19:42;16.62;85.59
65374;SHT31;52070;53.760;9.678;2023-09-19T01:22:23;16.60;85.73
65374;SHT31;52070;53.760;9.678;2023-09-19T01:28:16;16.53;85.81
65374;SHT31;52070;53.760;9.678;2023-09-19T01:30:52;16.53;85.54
65374;SHT31;52070;53.760;9.678;2023-09-19T01:33:23;16.46;85.77
65374;SHT31;52070;53.760;9.678;2023-09-19T01:35:51;16.46;85.89
65374;SHT31;52070;53.760;9.678;2023-09-19T01:38:24;16.41;85.66
65374;SHT31;52070;53.760;9.678;2023-09-19T01:40:57;16.38;85.73
65374;SHT31;52070;53.760;9.678;2023-09-19T01:43:28;16.39;85.54
65374;SHT31;52070;53.760;9.678;2023-09-19T01:46:02;16.33;85.75
65374;SHT31;52070;53.760;9.678;2023-09-19T01:48:41;16.28;85.83
65374;SHT31;52070;53.760;9.678;2023-09-19T01:51:14;16.24;85.87
65374;SHT31;52070;53.760;9.678;2023-09-19T01:53:51;16.18;85.85
65374;SHT31;52070;53.760;9.678;2023-09-19T01:56:23;16.15;85.98
65374;SHT31;52070;53.760;9.678;2023-09-19T01:58:54;16.12;85.98
65374;SHT31;52070;53.760;9.678;2023-09-19T02:01:26;16.08;86.09
65374;SHT31;52070;53.760;9.678;2023-09-19T02:03:53;16.04;86.16
65374;SHT31;52070;53.760;9.678;2023-09-19T02:06:22;15.98;86.30
65374;SHT31;52070;53.760;9.678;2023-09-19T02:08:51;15.90;86.36
65374;SHT31;52070;53.760;9.678;2023-09-19T02:11:17;15.85;86.10
65374;SHT31;52070;53.760;9.678;2023-09-19T02:13:45;15.84;86.18
65374;SHT31;52070;53.760;9.678;2023-09-19T02:16:12;15.80;86.34
65374;SHT31;52070;53.760;9.678;2023-09-19T02:18:40;15.78;86.28
65374;SHT31;52070;53.760;9.678;2023-09-19T02:21:07;15.77;86.29
65374;SHT31;52070;53.760;9.678;2023-09-19T02:23:35;15.71;86.47
65374;SHT31;52070;53.760;9.678;2023-09-19T02:26:02;15.67;86.51
65374;SHT31;52070;53.760;9.678;2023-09-19T02:28:30;15.71;86.43
65374;SHT31;52070;53.760;9.678;2023-09-19T02:30:58;15.64;86.50
65374;SHT31;52070;53.760;9.678;2023-09-19T02:33:25;15.64;86.52
65374;SHT31;52070;53.760;9.678;2023-09-19T02:35:56;15.60;86.67
65374;SHT31;52070;53.760;9.678;2023-09-19T02:38:24;15.58;86.54
65374;SHT31;52070;53.760;9.678;2023-09-19T02:40:51;15.64;86.44
65374;SHT31;52070;53.760;9.678;2023-09-19T02:43:18;15.58;86.52
65374;SHT31;52070;53.760;9.678;2023-09-19T02:45:46;15.60;86.50
65374;SHT31;52070;53.760;9.678;2023-09-19T02:48:15;15.60;85.97
65374;SHT31;52070;53.760;9.678;2023-09-19T02:50:42;15.63;85.68
65374;SHT31;52070;53.760;9.678;2023-09-19T02:53:11;15.64;85.47
65374;SHT31;52070;53.760;9.678;2023-09-19T02:55:39;15.65;85.33
65374;SHT31;52070;53.760;9.678;2023-09-19T02:58:07;15.68;85.19
65374;SHT31;52070;53.760;9.678;2023-09-19T03:00:37;15.67;85.20
65374;SHT31;52070;53.760;9.678;2023-09-19T03:03:04;15.65;84.95
65374;SHT31;52070;53.760;9.678;2023-09-19T03:05:32;15.63;85.15
65374;SHT31;52070;53.760;9.678;2023-09-19T03:07:59;15.64;84.90
65374;SHT31;52070;53.760;9.678;2023-09-19T03:10:28;15.64;84.41
65374;SHT31;52070;53.760;9.678;2023-09-19T03:12:57;15.67;84.22
65374;SHT31;52070;53.760;9.678;2023-09-19T03:15:25;15.65;84.39
65374;SHT31;52070;53.760;9.678;2023-09-19T03:17:52;15.60;84.44
65374;SHT31;52070;53.760;9.678;2023-09-19T03:20:20;15.61;83.64
65374;SHT31;52070;53.760;9.678;2023-09-19T03:22:47;15.57;83.61
65374;SHT31;52070;53.760;9.678;2023-09-19T03:25:13;15.57;83.54
65374;SHT31;52070;53.760;9.678;2023-09-19T03:27:42;15.54;83.86
65374;SHT31;52070;53.760;9.678;2023-09-19T03:30:09;15.47;84.00
65374;SHT31;52070;53.760;9.678;2023-09-19T03:32:43;15.43;84.13
65374;SHT31;52070;53.760;9.678;2023-09-19T03:35:10;15.39;84.30
65374;SHT31;52070;53.760;9.678;2023-09-19T03:37:40;15.37;84.15
65374;SHT31;52070;53.760;9.678;2023-09-19T03:40:08;15.37;84.02
65374;SHT31;52070;53.760;9.678;2023-09-19T03:42:38;15.34;84.07
65374;SHT31;52070;53.760;9.678;2023-09-19T03:45:07;15.33;83.84
65374;SHT31;52070;53.760;9.678;2023-09-19T03:47:38;15.29;83.99
65374;SHT31;52070;53.760;9.678;2023-09-19T03:50:05;15.22;83.61
65374;SHT31;52070;53.760;9.678;2023-09-19T03:52:32;15.16;83.85
65374;SHT31;52070;53.760;9.678;2023-09-19T03:55:00;15.18;83.23
65374;SHT31;52070;53.760;9.678;2023-09-19T03:57:28;15.18;82.81
65374;SHT31;52070;53.760;9.678;2023-09-19T03:59:55;15.10;82.66
65374;SHT31;52070;53.760;9.678;2023-09-19T04:02:23;15.06;82.54
65374;SHT31;52070;53.760;9.678;2023-09-19T04:04:51;15.00;82.38
65374;SHT31;52070;53.760;9.678;2023-09-19T04:07:18;15.03;81.71
65374;SHT31;52070;53.760;9.678;2023-09-19T04:09:48;15.02;81.36
65374;SHT31;52070;53.760;9.678;2023-09-19T04:12:15;14.99;81.32
65374;SHT31;52070;53.760;9.678;2023-09-19T04:14:43;14.95;81.14
65374;SHT31;52070;53.760;9.678;2023-09-19T04:17:10;14.90;81.35
65374;SHT31;52070;53.760;9.678;2023-09-19T04:19:38;14.88;81.74
65374;SHT31;52070;53.760;9.678;2023-09-19T04:22:07;14.83;81.61
65374;SHT31;52070;53.760;9.678;2023-09-19T04:24:34;14.78;81.77
65374;SHT31;52070;53.760;9.678;2023-09-19T04:27:01;14.75;82.05
65374;SHT31;52070;53.760;9.678;2023-09-19T04:29:29;14.76;82.44
65374;SHT31;52070;53.760;9.678;2023-09-19T04:31:56;14.71;82.75
65374;SHT31;52070;53.760;9.678;2023-09-19T04:34:23;14.72;83.16
65374;SHT31;52070;53.760;9.678;2023-09-19T04:36:52;14.68;83.42
65374;SHT31;52070;53.760;9.678;2023-09-19T04:39:19;14.66;83.38
65374;SHT31;52070;53.760;9.678;2023-09-19T04:41:46;14.66;83.33
65374;SHT31;52070;53.760;9.678;2023-09-19T04:44:13;14.65;83.30
65374;SHT31;52070;53.760;9.678;2023-09-19T04:46:41;14.59;83.11
65374;SHT31;52070;53.760;9.678;2023-09-19T04:49:08;14.58;83.11
65374;SHT31;52070;53.760;9.678;2023-09-19T04:51:35;14.55;83.07
65374;SHT31;52070;53.760;9.678;2023-09-19T04:54:03;14.55;82.95
65374;SHT31;52070;53.760;9.678;2023-09-19T04:56:31;14.51;82.72
65374;SHT31;52070;53.760;9.678;2023-09-19T04:58:58;14.48;82.93
65374;SHT31;52070;53.760;9.678;2023-09-19T05:01:25;14.44;83.16
65374;SHT31;52070;53.760;9.678;2023-09-19T05:03:52;14.39;83.25
65374;SHT31;52070;53.760;9.678;2023-09-19T05:06:20;14.36;83.11
65374;SHT31;52070;53.760;9.678;2023-09-19T05:08:47;14.39;82.91
65374;SHT31;52070;53.760;9.678;2023-09-19T05:11:18;14.41;82.87
65374;SHT31;52070;53.760;9.678;2023-09-19T05:13:48;14.36;82.93
65374;SHT31;52070;53.760;9.678;2023-09-19T05:16:16;14.32;82.92
65374;SHT31;52070;53.760;9.678;2023-09-19T05:18:43;14.28;82.80
65374;SHT31;52070;53.760;9.678;2023-09-19T05:21:10;14.28;82.69
65374;SHT31;52070;53.760;9.678;2023-09-19T05:23:38;14.29;82.57
65374;SHT31;52070;53.760;9.678;2023-09-19T05:26:05;14.29;82.83
65374;SHT31;52070;53.760;9.678;2023-09-19T05:28:33;14.21;82.84
65374;SHT31;52070;53.760;9.678;2023-09-19T05:31:01;14.17;82.94
65374;SHT31;52070;53.760;9.678;2023-09-19T05:33:28;14.20;83.10
65374;SHT31;52070;53.760;9.678;2023-09-19T05:35:57;14.20;82.98
65374;SHT31;52070;53.760;9.678;2023-09-19T05:38:24;14.15;83.29
65374;SHT31;52070;53.760;9.678;2023-09-19T05:40:53;14.14;83.33
65374;SHT31;52070;53.760;9.678;2023-09-19T05:43:20;14.15;83.34
65374;SHT31;52070;53.760;9.678;2023-09-19T05:45:48;14.14;83.38
65374;SHT31;52070;53.760;9.678;2023-09-19T05:48:18;14.14;83.53
65374;SHT31;52070;53.760;9.678;2023-09-19T05:50:46;14.15;83.40
65374;SHT31;52070;53.760;9.678;2023-09-19T05:53:14;14.18;83.41
65374;SHT31;52070;53.760;9.678;2023-09-19T05:55:42;14.22;83.37
65374;SHT31;52070;53.760;9.678;2023-09-19T05:58:09;14.31;83.48
65374;SHT31;52070;53.760;9.678;2023-09-19T06:00:39;14.35;83.19
65374;SHT31;52070;53.760;9.678;2023-09-19T06:03:10;14.36;83.19
65374;SHT31;52070;53.760;9.678;2023-09-19T06:05:37;14.42;83.53
65374;SHT31;52070;53.760;9.678;2023-09-19T06:08:06;14.48;83.51
65374;SHT31;52070;53.760;9.678;2023-09-19T06:10:35;14.49;83.71
65374;SHT31;52070;53.760;9.678;2023-09-19T06:13:02;14.52;82.81
65374;SHT31;52070;53.760;9.678;2023-09-19T06:15:30;14.54;82.48
65374;SHT31;52070;53.760;9.678;2023-09-19T06:17:59;14.55;82.50
65374;SHT31;52070;53.760;9.678;2023-09-19T06:20:29;14.55;82.72
65374;SHT31;52070;53.760;9.678;2023-09-19T06:22:56;14.55;82.08
65374;SHT31;52070;53.760;9.678;2023-09-19T06:25:23;14.56;82.04
65374;SHT31;52070;53.760;9.678;2023-09-19T06:27:52;14.59;81.68
65374;SHT31;52070;53.760;9.678;2023-09-19T06:30:20;14.62;81.19
65374;SHT31;52070;53.760;9.678;2023-09-19T06:32:47;14.65;80.70
65374;SHT31;52070;53.760;9.678;2023-09-19T06:35:15;14.66;80.95
65374;SHT31;52070;53.760;9.678;2023-09-19T06:37:44;14.68;81.36
65374;SHT31;52070;53.760;9.678;2023-09-19T06:40:11;14.66;81.03
65374;SHT31;52070;53.760;9.678;2023-09-19T06:42:40;14.66;80.91
65374;SHT31;52070;53.760;9.678;2023-09-19T06:45:08;14.66;80.85
65374;SHT31;52070;53.760;9.678;2023-09-19T06:47:37;14.66;80.77
65374;SHT31;52070;53.760;9.678;2023-09-19T06:50:04;14.69;80.76
65374;SHT31;52070;53.760;9.678;2023-09-19T06:52:35;14.73;81.25
65374;SHT31;52070;53.760;9.678;2023-09-19T06:55:03;14.69;80.39
65374;SHT31;52070;53.760;9.678;2023-09-19T06:57:32;14.72;80.53
65374;SHT31;52070;53.760;9.678;2023-09-19T06:59:59;14.73;80.47
65374;SHT31;52070;53.760;9.678;2023-09-19T07:02:27;14.76;80.61
65374;SHT31;52070;53.760;9.678;2023-09-19T07:04:54;14.73;80.63
65374;SHT31;52070;53.760;9.678;2023-09-19T07:07:21;14.78;80.79
65374;SHT31;52070;53.760;9.678;2023-09-19T07:09:48;14.80;80.98
65374;SHT31;52070;53.760;9.678;2023-09-19T07:12:18;14.80;80.74
65374;SHT31;52070;53.760;9.678;2023-09-19T07:14:45;14.83;81.19
65374;SHT31;52070;53.760;9.678;2023-09-19T07:17:12;14.83;81.19
65374;SHT31;52070;53.760;9.678;2023-09-19T07:19:44;14.83;80.83
65374;SHT31;52070;53.760;9.678;2023-09-19T07:22:11;14.86;80.79
65374;SHT31;52070;53.760;9.678;2023-09-19T07:24:38;14.86;81.11
65374;SHT31;52070;53.760;9.678;2023-09-19T07:27:06;14.89;81.28
65374;SHT31;52070;53.760;9.678;2023-09-19T07:29:34;14.92;81.20
65374;SHT31;52070;53.760;9.678;2023-09-19T07:32:01;14.93;80.90
65374;SHT31;52070;53.760;9.678;2023-09-19T07:34:28;14.90;81.17
65374;SHT31;52070;53.760;9.678;2023-09-19T07:36:55;14.92;81.42
65374;SHT31;52070;53.760;9.678;2023-09-19T07:39:22;14.89;81.24
65374;SHT31;52070;53.760;9.678;2023-09-19T07:41:49;14.95;81.56
65374;SHT31;52070;53.760;9.678;2023-09-19T07:44:16;15.00;81.50
65374;SHT31;52070;53.760;9.678;2023-09-19T07:46:46;14.96;81.19
65374;SHT31;52070;53.760;9.678;2023-09-19T07:49:16;15.02;81.26
65374;SHT31;52070;53.760;9.678;2023-09-19T07:51:44;15.00;81.69
65374;SHT31;52070;53.760;9.678;2023-09-19T07:54:12;15.07;81.42
65374;SHT31;52070;53.760;9.678;2023-09-19T07:56:40;15.10;81.33
65374;SHT31;52070;53.760;9.678;2023-09-19T07:59:07;15.16;81.27
65374;SHT31;52070;53.760;9.678;2023-09-19T08:01:37;15.19;80.65
65374;SHT31;52070;53.760;9.678;2023-09-19T08:04:07;15.22;80.60
65374;SHT31;52070;53.760;9.678;2023-09-19T08:06:34;15.27;80.28
65374;SHT31;52070;53.760;9.678;2023-09-19T08:09:01;15.27;79.97
65374;SHT31;52070;53.760;9.678;2023-09-19T08:11:33;15.29;79.34
65374;SHT31;52070;53.760;9.678;2023-09-19T08:14:00;15.34;79.95
65374;SHT31;52070;53.760;9.678;2023-09-19T08:16:27;15.30;79.43
65374;SHT31;52070;53.760;9.678;2023-09-19T08:18:54;15.24;79.46
65374;SHT31;52070;53.760;9.678;2023-09-19T08:21:22;15.24;79.68
65374;SHT31;52070;53.760;9.678;2023-09-19T08:23:49;15.27;79.63
65374;SHT31;52070;53.760;9.678;2023-09-19T08:26:16;15.26;79.34
65374;SHT31;52070;53.760;9.678;2023-09-19T08:28:44;15.23;79.44
65374;SHT31;52070;53.760;9.678;2023-09-19T08:31:11;15.20;79.82
65374;SHT31;52070;53.760;9.678;2023-09-19T08:33:39;15.23;80.29
65374;SHT31;52070;53.760;9.678;2023-09-19T08:36:07;15.23;80.15
65374;SHT31;52070;53.760;9.678;2023-09-19T08:38:36;15.20;80.19
65374;SHT31;52070;53.760;9.678;2023-09-19T08:41:05;15.22;80.19
65374;SHT31;52070;53.760;9.678;2023-09-19T08:43:33;15.24;80.40
65374;SHT31;52070;53.760;9.678;2023-09-19T08:46:06;15.24;79.69
65374;SHT31;52070;53.760;9.678;2023-09-19T08:48:39;15.27;80.32
65374;SHT31;52070;53.760;9.678;2023-09-19T08:51:07;15.23;80.29
65374;SHT31;52070;53.760;9.678;2023-09-19T08:53:41;15.29;79.86
65374;SHT31;52070;53.760;9.678;2023-09-19T08:56:10;15.34;79.72
65374;SHT31;52070;53.760;9.678;2023-09-19T08:58:44;15.39;79.94
65374;SHT31;52070;53.760;9.678;2023-09-19T09:01:14;15.40;79.26
65374;SHT31;52070;53.760;9.678;2023-09-19T09:03:43;15.49;79.09
65374;SHT31;52070;53.760;9.678;2023-09-19T09:06:14;15.55;78.76
65374;SHT31;52070;53.760;9.678;2023-09-19T09:08:44;15.58;78.39
65374;SHT31;52070;53.760;9.678;2023-09-19T09:11:11;15.61;78.54
65374;SHT31;52070;53.760;9.678;2023-09-19T09:13:39;15.63;77.98
65374;SHT31;52070;53.760;9.678;2023-09-19T09:16:07;15.70;78.02
65374;SHT31;52070;53.760;9.678;2023-09-19T09:18:34;15.83;78.36
65374;SHT31;52070;53.760;9.678;2023-09-19T09:21:01;15.92;77.48
65374;SHT31;52070;53.760;9.678;2023-09-19T09:23:30;15.97;76.81
65374;SHT31;52070;53.760;9.678;2023-09-19T09:25:59;15.97;76.19
65374;SHT31;52070;53.760;9.678;2023-09-19T09:28:30;16.11;76.87
65374;SHT31;52070;53.760;9.678;2023-09-19T09:30:59;16.14;76.05
65374;SHT31;52070;53.760;9.678;2023-09-19T09:33:28;16.16;74.91
65374;SHT31;52070;53.760;9.678;2023-09-19T09:35:57;16.15;74.93
65374;SHT31;52070;53.760;9.678;2023-09-19T09:38:28;16.29;75.12
65374;SHT31;52070;53.760;9.678;2023-09-19T09:40:59;16.33;75.30
65374;SHT31;52070;53.760;9.678;2023-09-19T09:43:33;16.39;74.91
65374;SHT31;52070;53.760;9.678;2023-09-19T09:46:12;16.46;74.36
65374;SHT31;52070;53.760;9.678;2023-09-19T09:48:59;16.56;73.32
65374;SHT31;52070;53.760;9.678;2023-09-19T09:51:42;16.52;73.07
65374;SHT31;52070;53.760;9.678;2023-09-19T09:54:13;16.62;73.20
65374;SHT31;52070;53.760;9.678;2023-09-19T09:56:57;16.73;71.18
65374;SHT31;52070;53.760;9.678;2023-09-19T09:59:49;16.81;71.69
65374;SHT31;52070;53.760;9.678;2023-09-19T10:02:25;16.83;71.56
65374;SHT31;52070;53.760;9.678;2023-09-19T10:04:55;16.86;71.00
65374;SHT31;52070;53.760;9.678;2023-09-19T10:07:35;16.83;69.38
65374;SHT31;52070;53.760;9.678;2023-09-19T10:10:04;16.84;69.49
65374;SHT31;52070;53.760;9.678;2023-09-19T10:12:45;16.81;68.71
65374;SHT31;52070;53.760;9.678;2023-09-19T10:15:16;16.83;68.94
65374;SHT31;52070;53.760;9.678;2023-09-19T10:17:46;16.86;69.23
65374;SHT31;52070;53.760;9.678;2023-09-19T10:20:15;16.86;68.92
65374;SHT31;52070;53.760;9.678;2023-09-19T10:23:05;16.91;69.36
65374;SHT31;52070;53.760;9.678;2023-09-19T10:25:37;16.99;69.99
65374;SHT31;52070;53.760;9.678;2023-09-19T10:28:07;17.06;68.75
65374;SHT31;52070;53.760;9.678;2023-09-19T10:30:37;17.10;68.87
65374;SHT31;52070;53.760;9.678;2023-09-19T10:33:08;17.48;68.96
65374;SHT31;52070;53.760;9.678;2023-09-19T10:35:38;17.67;68.65
65374;SHT31;52070;53.760;9.678;2023-09-19T10:38:06;17.92;66.68
65374;SHT31;52070;53.760;9.678;2023-09-19T10:40:35;17.60;66.64
65374;SHT31;52070;53.760;9.678;2023-09-19T10:43:03;17.38;68.26
65374;SHT31;52070;53.760;9.678;2023-09-19T10:45:34;17.40;70.16
65374;SHT31;52070;53.760;9.678;2023-09-19T10:48:02;17.57;70.51
65374;SHT31;52070;53.760;9.678;2023-09-19T10:50:35;17.52;68.74
65374;SHT31;52070;53.760;9.678;2023-09-19T10:53:04;17.47;68.62
65374;SHT31;52070;53.760;9.678;2023-09-19T10:55:34;17.51;69.81
65374;SHT31;52070;53.760;9.678;2023-09-19T10:58:02;17.41;69.05
65374;SHT31;52070;53.760;9.678;2023-09-19T11:00:51;17.34;69.71
65374;SHT31;52070;53.760;9.678;2023-09-19T11:03:20;17.34;69.05
65374;SHT31;52070;53.760;9.678;2023-09-19T11:06:09;17.38;68.96
65374;SHT31;52070;53.760;9.678;2023-09-19T11:08:56;17.38;69.67
65374;SHT31;52070;53.760;9.678;2023-09-19T11:11:43;17.30;68.82
65374;SHT31;52070;53.760;9.678;2023-09-19T11:14:29;17.34;69.07
65374;SHT31;52070;53.760;9.678;2023-09-19T11:20:22;17.41;68.16
65374;SHT31;52070;53.760;9.678;2023-09-19T11:23:20;17.45;68.75
65374;SHT31;52070;53.760;9.678;2023-09-19T11:25:53;17.52;69.87
65374;SHT31;52070;53.760;9.678;2023-09-19T11:28:31;17.86;67.96
65374;SHT31;52070;53.760;9.678;2023-09-19T11:30:57;18.08;65.75
65374;SHT31;52070;53.760;9.678;2023-09-19T11:33:26;18.40;64.46
65374;SHT31;52070;53.760;9.678;2023-09-19T11:36:01;18.36;65.06
65374;SHT31;52070;53.760;9.678;2023-09-19T11:39:01;18.45;64.58
65374;SHT31;52070;53.760;9.678;2023-09-19T11:41:37;18.78;63.69
65374;SHT31;52070;53.760;9.678;2023-09-19T11:44:33;18.32;63.00
65374;SHT31;52070;53.760;9.678;2023-09-19T11:47:05;18.16;64.17
65374;SHT31;52070;53.760;9.678;2023-09-19T11:49:32;18.26;64.48
65374;SHT31;52070;53.760;9.678;2023-09-19T11:52:02;18.67;64.03
65374;SHT31;52070;53.760;9.678;2023-09-19T11:54:32;18.81;63.63
65374;SHT31;52070;53.760;9.678;2023-09-19T11:57:00;18.63;63.64
65374;SHT31;52070;53.760;9.678;2023-09-19T11:59:29;18.76;64.41
65374;SHT31;52070;53.760;9.678;2023-09-19T12:01:58;18.98;63.91
65374;SHT31;52070;53.760;9.678;2023-09-19T12:04:34;19.14;64.38
65374;SHT31;52070;53.760;9.678;2023-09-19T12:07:06;19.30;63.85
65374;SHT31;52070;53.760;9.678;2023-09-19T12:09:39;18.96;62.52
65374;SHT31;52070;53.760;9.678;2023-09-19T12:12:08;18.77;64.06
65374;SHT31;52070;53.760;9.678;2023-09-19T12:14:38;18.61;62.13
65374;SHT31;52070;53.760;9.678;2023-09-19T12:17:07;18.76;63.09
65374;SHT31;52070;53.760;9.678;2023-09-19T12:19:34;18.87;62.25
65374;SHT31;52070;53.760;9.678;2023-09-19T12:22:02;18.87;63.34
65374;SHT31;52070;53.760;9.678;2023-09-19T12:24:32;18.90;61.05
65374;SHT31;52070;53.760;9.678;2023-09-19T12:27:04;18.68;61.05
65374;SHT31;52070;53.760;9.678;2023-09-19T12:29:32;18.86;61.08
65374;SHT31;52070;53.760;9.678;2023-09-19T12:32:08;18.87;61.63
65374;SHT31;52070;53.760;9.678;2023-09-19T12:34:35;18.77;61.76
65374;SHT31;52070;53.760;9.678;2023-09-19T12:37:09;18.81;61.84
65374;SHT31;52070;53.760;9.678;2023-09-19T12:39:44;18.88;59.97
65374;SHT31;52070;53.760;9.678;2023-09-19T12:42:15;18.81;59.19
65374;SHT31;52070;53.760;9.678;2023-09-19T12:44:44;18.64;58.88
65374;SHT31;52070;53.760;9.678;2023-09-19T12:47:14;18.49;59.01
65374;SHT31;52070;53.760;9.678;2023-09-19T12:50:11;18.45;60.33
65374;SHT31;52070;53.760;9.678;2023-09-19T12:52:44;18.40;60.45
65374;SHT31;52070;53.760;9.678;2023-09-19T12:55:25;18.55;60.40
65374;SHT31;52070;53.760;9.678;2023-09-19T12:58:00;18.61;59.04
65374;SHT31;52070;53.760;9.678;2023-09-19T13:00:34;18.78;61.00
65374;SHT31;52070;53.760;9.678;2023-09-19T13:03:17;18.84;61.33
65374;SHT31;52070;53.760;9.678;2023-09-19T13:05:49;18.87;60.28
65374;SHT31;52070;53.760;9.678;2023-09-19T13:08:18;19.06;59.20
65374;SHT31;52070;53.760;9.678;2023-09-19T13:11:08;19.07;56.99
65374;SHT31;52070;53.760;9.678;2023-09-19T13:13:37;19.08;58.30
65374;SHT31;52070;53.760;9.678;2023-09-19T13:16:05;18.97;57.97
65374;SHT31;52070;53.760;9.678;2023-09-19T13:18:45;19.15;59.83
65374;SHT31;52070;53.760;9.678;2023-09-19T13:21:13;19.11;58.47
65374;SHT31;52070;53.760;9.678;2023-09-19T13:23:50;19.28;59.71
65374;SHT31;52070;53.760;9.678;2023-09-19T13:26:19;19.55;57.18
65374;SHT31;52070;53.760;9.678;2023-09-19T13:28:46;19.69;58.51
65374;SHT31;52070;53.760;9.678;2023-09-19T13:31:15;19.57;57.71
65374;SHT31;52070;53.760;9.678;2023-09-19T13:33:43;19.47;57.98
65374;SHT31;52070;53.760;9.678;2023-09-19T13:36:11;19.36;57.65
65374;SHT31;52070;53.760;9.678;2023-09-19T13:38:39;19.45;57.92
65374;SHT31;52070;53.760;9.678;2023-09-19T13:41:06;19.65;58.43
65374;SHT31;52070;53.760;9.678;2023-09-19T13:43:34;19.68;57.53
65374;SHT31;52070;53.760;9.678;2023-09-19T13:46:01;19.86;57.03
65374;SHT31;52070;53.760;9.678;2023-09-19T13:48:28;20.08;57.27
65374;SHT31;52070;53.760;9.678;2023-09-19T13:50:55;19.89;55.23
65374;SHT31;52070;53.760;9.678;2023-09-19T13:53:23;19.75;57.83
65374;SHT31;52070;53.760;9.678;2023-09-19T13:55:51;19.59;56.44
65374;SHT31;52070;53.760;9.678;2023-09-19T13:58:18;19.54;57.20
65374;SHT31;52070;53.760;9.678;2023-09-19T14:00:48;19.41;56.65
65374;SHT31;52070;53.760;9.678;2023-09-19T14:03:15;19.24;57.40
65374;SHT31;52070;53.760;9.678;2023-09-19T14:05:42;19.24;57.48
65374;SHT31;52070;53.760;9.678;2023-09-19T14:08:09;19.45;58.41
65374;SHT31;52070;53.760;9.678;2023-09-19T14:10:38;19.39;56.80
65374;SHT31;52070;53.760;9.678;2023-09-19T14:13:05;19.17;57.62
65374;SHT31;52070;53.760;9.678;2023-09-19T14:15:32;19.10;58.72
65374;SHT31;52070;53.760;9.678;2023-09-19T14:18:02;18.97;58.56
65374;SHT31;52070;53.760;9.678;2023-09-19T14:20:29;18.84;59.42
65374;SHT31;52070;53.760;9.678;2023-09-19T14:22:56;18.81;59.88
65374;SHT31;52070;53.760;9.678;2023-09-19T14:25:24;18.76;60.31
65374;SHT31;52070;53.760;9.678;2023-09-19T14:27:51;18.63;60.60
65374;SHT31;52070;53.760;9.678;2023-09-19T14:30:18;18.55;61.51
65374;SHT31;52070;53.760;9.678;2023-09-19T14:32:45;18.50;61.26
65374;SHT31;52070;53.760;9.678;2023-09-19T14:35:13;18.46;61.41
65374;SHT31;52070;53.760;9.678;2023-09-19T14:37:40;18.50;61.90
65374;SHT31;52070;53.760;9.678;2023-09-19T14:40:08;18.52;61.74
65374;SHT31;52070;53.760;9.678;2023-09-19T14:42:39;18.60;62.28
65374;SHT31;52070;53.760;9.678;2023-09-19T14:45:06;18.57;62.54
65374;SHT31;52070;53.760;9.678;2023-09-19T14:47:34;18.53;61.86
65374;SHT31;52070;53.760;9.678;2023-09-19T14:50:02;18.50;63.11
65374;SHT31;52070;53.760;9.678;2023-09-19T14:52:33;18.52;62.89
65374;SHT31;52070;53.760;9.678;2023-09-19T14:55:01;18.52;62.58
65374;SHT31;52070;53.760;9.678;2023-09-19T14:57:30;18.52;63.09
65374;SHT31;52070;53.760;9.678;2023-09-19T14:59:57;18.57;63.26
65374;SHT31;52070;53.760;9.678;2023-09-19T15:02:24;18.53;62.79
65374;SHT31;52070;53.760;9.678;2023-09-19T15:04:51;18.53;62.75
65374;SHT31;52070;53.760;9.678;2023-09-19T15:07:18;18.46;63.20
65374;SHT31;52070;53.760;9.678;2023-09-19T15:09:47;18.47;63.31
65374;SHT31;52070;53.760;9.678;2023-09-19T15:12:14;18.45;63.99
65374;SHT31;52070;53.760;9.678;2023-09-19T15:14:42;18.42;64.87
65374;SHT31;52070;53.760;9.678;2023-09-19T15:17:09;18.30;65.22
65374;SHT31;52070;53.760;9.678;2023-09-19T15:19:36;18.17;67.98
65374;SHT31;52070;53.760;9.678;2023-09-19T15:22:04;18.08;68.68
65374;SHT31;52070;53.760;9.678;2023-09-19T15:24:32;18.01;69.21
65374;SHT31;52070;53.760;9.678;2023-09-19T15:27:00;17.98;70.01
65374;SHT31;52070;53.760;9.678;2023-09-19T15:29:28;17.89;69.62
65374;SHT31;52070;53.760;9.678;2023-09-19T15:31:55;17.82;69.81
65374;SHT31;52070;53.760;9.678;2023-09-19T15:34:24;17.82;69.90
65374;SHT31;52070;53.760;9.678;2023-09-19T15:36:51;17.85;69.54
65374;SHT31;52070;53.760;9.678;2023-09-19T15:39:18;17.85;69.71
65374;SHT31;52070;53.760;9.678;2023-09-19T15:41:48;17.86;69.06
65374;SHT31;52070;53.760;9.678;2023-09-19T15:44:18;17.91;68.35
65374;SHT31;52070;53.760;9.678;2023-09-19T15:46:46;17.91;68.62
65374;SHT31;52070;53.760;9.678;2023-09-19T15:49:14;17.96;67.98
65374;SHT31;52070;53.760;9.678;2023-09-19T15:51:43;18.01;67.62
65374;SHT31;52070;53.760;9.678;2023-09-19T15:54:11;18.05;67.70